createdAt,value
2018-06-05T00:00:29.556Z,27.90
2018-06-05T00:01:29.529Z,27.00
2018-06-05T00:02:29.528Z,30.50
2018-06-05T00:03:29.498Z,30.00
2018-06-05T00:04:29.484Z,29.30
2018-06-05T00:05:29.502Z,27.90
2018-06-05T00:06:29.456Z,27.30
2018-06-05T00:07:29.437Z,29.70
2018-06-05T00:08:29.430Z,28.50
2018-06-05T00:09:29.411Z,27.70
2018-06-05T00:10:29.396Z,31.20
2018-06-05T00:11:29.413Z,29.30
2018-06-05T00:12:29.372Z,28.80
2018-06-05T00:13:29.356Z,29.90
2018-06-05T00:14:29.342Z,30.00
2018-06-05T00:15:29.321Z,31.00
2018-06-05T00:16:29.317Z,29.90
2018-06-05T00:17:29.293Z,31.50
2018-06-05T00:18:29.280Z,31.90
2018-06-05T00:19:29.261Z,31.50
2018-06-05T00:20:29.246Z,31.50
2018-06-05T00:21:29.253Z,31.40
2018-06-05T00:22:29.224Z,31.50
2018-06-05T00:23:29.203Z,31.70
2018-06-05T00:24:29.188Z,31.70
2018-06-05T00:25:29.173Z,31.70
2018-06-05T00:26:29.159Z,32.10
2018-06-05T00:27:29.155Z,32.90
2018-06-05T00:28:29.126Z,32.20
2018-06-05T00:29:29.116Z,33.20
2018-06-05T00:30:29.100Z,32.20
2018-06-05T00:31:29.081Z,35.40
2018-06-05T00:32:29.081Z,35.00
2018-06-05T00:33:29.058Z,33.00
2018-06-05T00:34:29.040Z,33.10
2018-06-05T00:35:29.051Z,32.70
2018-06-05T00:36:29.007Z,32.80
2018-06-05T00:37:29.014Z,32.20
2018-06-05T00:38:28.977Z,33.90
2018-06-05T00:39:28.963Z,33.50
2018-06-05T00:40:28.945Z,34.70
2018-06-05T00:41:28.933Z,33.60
2018-06-05T00:42:28.915Z,32.80
2018-06-05T00:43:28.912Z,32.60
2018-06-05T00:44:28.886Z,32.60
2018-06-05T00:45:28.870Z,33.30
2018-06-05T00:46:28.856Z,31.20
2018-06-05T00:47:28.838Z,31.70
2018-06-05T00:48:28.836Z,31.50
2018-06-05T00:49:28.808Z,33.00
2018-06-05T00:50:28.794Z,31.40
2018-06-05T00:51:28.779Z,31.90
2018-06-05T00:52:28.764Z,33.40
2018-06-05T00:53:28.790Z,34.50
2018-06-05T00:54:28.737Z,36.00
2018-06-05T00:55:28.722Z,38.30
2018-06-05T00:56:28.710Z,32.70
2018-06-05T00:57:28.689Z,33.00
2018-06-05T00:58:28.672Z,35.60
2018-06-05T00:59:28.674Z,37.20
2018-06-05T01:00:28.641Z,41.60
2018-06-05T01:01:28.631Z,37.70
2018-06-05T01:02:28.616Z,35.50
2018-06-05T01:03:28.595Z,35.50
2018-06-05T01:04:28.590Z,36.10
2018-06-05T01:05:28.566Z,36.80
2018-06-05T01:06:28.550Z,35.90
2018-06-05T01:07:28.535Z,33.50
2018-06-05T01:08:28.521Z,31.80
2018-06-05T01:09:28.526Z,32.90
2018-06-05T01:10:28.489Z,33.40
2018-06-05T01:11:28.472Z,33.80
2018-06-05T01:12:28.467Z,37.30
2018-06-05T01:13:28.444Z,34.40
2018-06-05T01:14:28.430Z,34.00
2018-06-05T01:15:28.424Z,34.40
2018-06-05T01:16:28.434Z,36.70
2018-06-05T01:17:28.379Z,35.70
2018-06-05T01:18:28.366Z,34.90
2018-06-05T01:19:28.352Z,34.20
2018-06-05T01:20:28.345Z,34.70
2018-06-05T01:21:28.318Z,35.30
2018-06-05T01:22:28.304Z,35.60
2018-06-05T01:23:28.289Z,37.00
2018-06-05T01:24:28.273Z,37.00
2018-06-05T01:25:28.279Z,36.40
2018-06-05T01:26:28.245Z,37.40
2018-06-05T01:27:28.228Z,37.30
2018-06-05T01:28:28.208Z,36.80
2018-06-05T01:29:28.200Z,34.10
2018-06-05T01:30:28.181Z,33.30
2018-06-05T01:31:28.181Z,34.70
2018-06-05T01:32:28.150Z,34.80
2018-06-05T01:33:28.132Z,34.10
2018-06-05T01:34:28.119Z,34.30
2018-06-05T01:35:28.110Z,32.00
2018-06-05T01:36:28.099Z,34.10
2018-06-05T01:37:28.070Z,34.60
2018-06-05T01:38:28.058Z,32.70
2018-06-05T01:39:28.040Z,33.60
2018-06-05T01:40:28.027Z,33.30
2018-06-05T01:41:28.031Z,34.30
2018-06-05T01:42:27.997Z,36.60
2018-06-05T01:43:27.980Z,38.10
2018-06-05T01:44:27.966Z,35.90
2018-06-05T01:45:27.948Z,36.70
2018-06-05T01:46:27.934Z,37.80
2018-06-05T01:47:27.929Z,40.60
2018-06-05T01:48:27.918Z,40.90
2018-06-05T01:49:27.886Z,44.40
2018-06-05T01:50:27.870Z,43.20
2018-06-05T01:51:27.853Z,45.30
2018-06-05T01:52:27.839Z,44.00
2018-06-05T01:53:27.824Z,43.90
2018-06-05T01:54:27.818Z,42.80
2018-06-05T01:55:27.798Z,43.60
2018-06-05T01:56:27.778Z,44.00
2018-06-05T01:57:27.761Z,39.60
2018-06-05T01:58:27.758Z,42.90
2018-06-05T01:59:27.742Z,46.20
2018-06-05T02:00:27.722Z,42.50
2018-06-05T02:01:27.699Z,43.10
2018-06-05T02:02:27.692Z,42.90
2018-06-05T02:03:27.667Z,39.90
2018-06-05T02:04:27.668Z,42.40
2018-06-05T02:05:27.634Z,40.90
2018-06-05T02:06:27.617Z,38.80
2018-06-05T02:07:27.604Z,40.20
2018-06-05T02:08:27.595Z,35.70
2018-06-05T02:09:27.569Z,38.50
2018-06-05T02:10:27.569Z,40.30
2018-06-05T02:11:27.543Z,39.50
2018-06-05T02:12:27.525Z,40.80
2018-06-05T02:13:27.508Z,43.70
2018-06-05T02:14:27.499Z,39.40
2018-06-05T02:15:27.756Z,42.10
2018-06-05T02:16:27.470Z,43.60
2018-06-05T02:17:27.448Z,44.90
2018-06-05T02:18:27.440Z,44.80
2018-06-05T02:19:27.415Z,45.50
2018-06-05T02:20:27.406Z,44.70
2018-06-05T02:21:27.398Z,47.70
2018-06-05T02:22:27.366Z,47.20
2018-06-05T02:23:27.358Z,43.50
2018-06-05T02:24:27.335Z,45.80
2018-06-05T02:25:27.326Z,42.30
2018-06-05T02:26:27.317Z,47.00
2018-06-05T02:27:27.288Z,47.30
2018-06-05T02:28:27.276Z,51.00
2018-06-05T02:29:27.258Z,46.60
2018-06-05T02:30:27.242Z,47.30
2018-06-05T02:31:27.249Z,57.10
2018-06-05T02:32:27.212Z,50.90
2018-06-05T02:33:27.196Z,55.40
2018-06-05T02:34:27.181Z,59.20
2018-06-05T02:35:27.163Z,59.50
2018-06-05T02:36:27.156Z,56.40
2018-06-05T02:37:27.141Z,58.90
2018-06-05T02:38:27.119Z,58.50
2018-06-05T02:39:27.099Z,59.40
2018-06-05T02:40:27.085Z,57.20
2018-06-05T02:41:27.069Z,61.50
2018-06-05T02:42:27.077Z,61.60
2018-06-05T02:43:27.039Z,60.70
2018-06-05T02:44:27.024Z,59.70
2018-06-05T02:45:27.004Z,56.40
2018-06-05T02:46:26.991Z,58.00
2018-06-05T02:47:26.974Z,55.60
2018-06-05T02:48:26.973Z,53.40
2018-06-05T02:49:26.947Z,57.50
2018-06-05T02:50:26.926Z,53.70
2018-06-05T02:51:26.911Z,59.30
2018-06-05T02:52:26.895Z,56.40
2018-06-05T02:53:26.899Z,60.20
2018-06-05T02:54:26.863Z,66.90
2018-06-05T02:55:26.848Z,67.70
2018-06-05T02:56:26.832Z,67.20
2018-06-05T02:57:26.816Z,66.30
2018-06-05T02:58:26.820Z,58.90
2018-06-05T02:59:26.788Z,63.40
2018-06-05T03:00:26.776Z,70.00
2018-06-05T03:01:26.751Z,64.20
2018-06-05T03:02:26.749Z,63.20
2018-06-05T03:03:26.720Z,62.40
2018-06-05T03:04:26.713Z,61.40
2018-06-05T03:05:26.685Z,65.40
2018-06-05T03:06:26.684Z,65.90
2018-06-05T03:07:26.655Z,61.90
2018-06-05T03:08:26.640Z,67.70
2018-06-05T03:09:26.920Z,63.60
2018-06-05T03:10:26.611Z,68.50
2018-06-05T03:11:26.592Z,72.00
2018-06-05T03:12:26.578Z,67.40
2018-06-05T03:13:26.560Z,70.60
2018-06-05T03:14:26.545Z,63.40
2018-06-05T03:15:26.538Z,62.30
2018-06-05T03:16:26.512Z,69.50
2018-06-05T03:17:26.499Z,65.40
2018-06-05T03:18:26.482Z,68.50
2018-06-05T03:19:26.463Z,67.00
2018-06-05T03:20:26.463Z,71.60
2018-06-05T03:21:26.432Z,67.10
2018-06-05T03:22:26.415Z,72.70
2018-06-05T03:23:26.398Z,65.10
2018-06-05T03:24:26.384Z,65.50
2018-06-05T03:25:26.368Z,62.80
2018-06-05T03:26:26.359Z,66.50
2018-06-05T03:27:26.337Z,63.90
2018-06-05T03:28:26.322Z,64.40
2018-06-05T03:29:26.304Z,59.30
2018-06-05T03:30:26.287Z,62.70
2018-06-05T03:31:26.288Z,58.50
2018-06-05T03:32:26.256Z,62.80
2018-06-05T03:33:26.240Z,60.00
2018-06-05T03:34:26.224Z,59.30
2018-06-05T03:35:26.208Z,53.90
2018-06-05T03:36:26.195Z,57.40
2018-06-05T03:37:26.210Z,53.10
2018-06-05T03:38:26.158Z,57.50
2018-06-05T03:39:26.147Z,50.70
2018-06-05T03:40:26.127Z,55.90
2018-06-05T03:41:26.110Z,57.80
2018-06-05T03:42:26.095Z,57.00
2018-06-05T03:43:26.089Z,55.90
2018-06-05T03:44:26.063Z,59.50
2018-06-05T03:45:26.053Z,58.10
2018-06-05T03:46:26.033Z,62.10
2018-06-05T03:47:26.014Z,59.40
2018-06-05T03:48:26.008Z,55.00
2018-06-05T03:49:25.981Z,53.50
2018-06-05T03:50:25.967Z,57.50
2018-06-05T03:51:25.948Z,57.20
2018-06-05T03:52:25.932Z,61.00
2018-06-05T03:53:25.936Z,51.60
2018-06-05T03:54:25.902Z,50.30
2018-06-05T03:55:25.888Z,49.40
2018-06-05T03:56:25.896Z,45.30
2018-06-05T03:57:25.855Z,51.40
2018-06-05T03:58:25.838Z,51.40
2018-06-05T03:59:25.836Z,51.30
2018-06-05T04:00:25.804Z,52.10
2018-06-05T04:01:25.792Z,50.60
2018-06-05T04:02:25.776Z,47.70
2018-06-05T04:03:25.756Z,47.50
2018-06-05T04:04:25.785Z,46.10
2018-06-05T04:05:25.737Z,43.90
2018-06-05T04:06:25.708Z,47.00
2018-06-05T04:07:25.694Z,44.80
2018-06-05T04:08:25.676Z,42.10
2018-06-05T04:09:25.658Z,43.50
2018-06-05T04:10:25.654Z,48.60
2018-06-05T04:11:25.628Z,49.80
2018-06-05T04:12:25.611Z,49.40
2018-06-05T04:13:25.594Z,48.60
2018-06-05T04:14:25.581Z,51.20
2018-06-05T04:15:25.572Z,47.90
2018-06-05T04:16:25.547Z,49.50
2018-06-05T04:17:25.533Z,49.50
2018-06-05T04:18:25.517Z,49.40
2018-06-05T04:19:25.499Z,50.50
2018-06-05T04:20:25.517Z,47.30
2018-06-05T04:21:25.468Z,54.70
2018-06-05T04:22:25.454Z,44.90
2018-06-05T04:23:25.437Z,53.00
2018-06-05T04:24:25.438Z,57.80
2018-06-05T04:25:25.402Z,57.80
2018-06-05T04:26:25.404Z,56.20
2018-06-05T04:27:25.372Z,55.90
2018-06-05T04:28:25.354Z,49.90
2018-06-05T04:29:25.337Z,55.10
2018-06-05T04:30:25.323Z,52.70
2018-06-05T04:31:25.305Z,63.10
2018-06-05T04:32:25.304Z,72.90
2018-06-05T04:33:25.272Z,75.70
2018-06-05T04:34:25.260Z,72.50
2018-06-05T04:35:25.242Z,65.50
2018-06-05T04:36:25.227Z,61.90
2018-06-05T04:37:25.221Z,63.50
2018-06-05T04:38:25.195Z,59.00
2018-06-05T04:39:25.180Z,52.30
2018-06-05T04:40:25.165Z,46.10
2018-06-05T04:41:25.148Z,50.60
2018-06-05T04:42:25.147Z,50.50
2018-06-05T04:43:25.116Z,51.10
2018-06-05T04:44:25.102Z,50.20
2018-06-05T04:45:25.087Z,53.70
2018-06-05T04:46:25.072Z,50.30
2018-06-05T04:47:25.054Z,56.30
2018-06-05T04:48:25.055Z,60.50
2018-06-05T04:49:25.026Z,60.90
2018-06-05T04:50:25.006Z,59.40
2018-06-05T04:51:24.991Z,60.50
2018-06-05T04:52:24.973Z,61.90
2018-06-05T04:53:24.960Z,64.50
2018-06-05T04:54:24.959Z,61.00
2018-06-05T04:55:24.929Z,67.00
2018-06-05T04:56:24.910Z,63.60
2018-06-05T04:57:24.897Z,63.70
2018-06-05T04:58:24.881Z,61.80
2018-06-05T04:59:24.880Z,64.10
2018-06-05T05:00:24.852Z,61.90
2018-06-05T05:01:24.834Z,57.40
2018-06-05T05:02:24.822Z,59.90
2018-06-05T05:03:24.810Z,58.70
2018-06-05T05:04:24.798Z,55.90
2018-06-05T05:05:24.781Z,55.90
2018-06-05T05:06:24.759Z,58.80
2018-06-05T05:07:24.745Z,56.60
2018-06-05T05:08:24.727Z,55.50
2018-06-05T05:09:24.711Z,55.30
2018-06-05T05:10:24.961Z,54.90
2018-06-05T05:11:24.680Z,54.50
2018-06-05T05:12:24.664Z,52.60
2018-06-05T05:13:24.652Z,56.20
2018-06-05T05:14:24.635Z,56.40
2018-06-05T05:15:24.619Z,54.00
2018-06-05T05:16:24.652Z,58.80
2018-06-05T05:17:24.593Z,56.40
2018-06-05T05:18:24.576Z,50.90
2018-06-05T05:19:24.559Z,52.90
2018-06-05T05:20:24.544Z,52.40
2018-06-05T05:21:24.528Z,53.60
2018-06-05T05:22:24.529Z,53.30
2018-06-05T05:23:24.501Z,54.80
2018-06-05T05:24:24.484Z,51.70
2018-06-05T05:25:24.469Z,52.10
2018-06-05T05:26:24.460Z,53.00
2018-06-05T05:27:24.486Z,50.70
2018-06-05T05:28:24.424Z,51.00
2018-06-05T05:29:24.410Z,51.40
2018-06-05T05:30:24.395Z,50.60
2018-06-05T05:31:24.380Z,51.30
2018-06-05T05:32:24.392Z,52.50
2018-06-05T05:33:24.355Z,54.10
2018-06-05T05:34:24.336Z,49.90
2018-06-05T05:35:24.324Z,54.10
2018-06-05T05:36:24.307Z,51.90
2018-06-05T05:37:24.547Z,53.00
2018-06-05T05:38:24.277Z,51.90
2018-06-05T05:39:24.261Z,51.10
2018-06-05T05:40:24.248Z,49.10
2018-06-05T05:41:24.235Z,51.30
2018-06-05T05:42:24.219Z,50.10
2018-06-05T05:43:24.220Z,54.10
2018-06-05T05:44:24.196Z,51.70
2018-06-05T05:45:24.175Z,50.80
2018-06-05T05:46:24.163Z,52.70
2018-06-05T05:47:24.146Z,49.00
2018-06-05T05:48:24.131Z,50.50
2018-06-05T05:49:24.128Z,49.70
2018-06-05T05:50:24.101Z,51.80
2018-06-05T05:51:24.104Z,48.50
2018-06-05T05:52:24.073Z,50.70
2018-06-05T05:53:24.059Z,50.00
2018-06-05T05:54:24.056Z,47.50
2018-06-05T05:55:24.028Z,50.80
2018-06-05T05:56:24.019Z,47.90
2018-06-05T05:57:24.000Z,48.70
2018-06-05T05:58:23.989Z,51.10
2018-06-05T05:59:23.984Z,50.30
2018-06-05T06:00:23.953Z,52.50
2018-06-05T06:01:23.943Z,48.20
2018-06-05T06:02:23.929Z,49.10
2018-06-05T06:03:23.914Z,50.00
2018-06-05T06:04:23.905Z,48.90
2018-06-05T06:05:23.900Z,49.20
2018-06-05T06:06:23.870Z,46.50
2018-06-05T06:07:23.856Z,52.80
2018-06-05T06:08:23.840Z,49.40
2018-06-05T06:09:23.828Z,49.10
2018-06-05T06:10:23.815Z,49.10
2018-06-05T06:11:23.806Z,48.70
2018-06-05T06:12:23.784Z,48.00
2018-06-05T06:13:23.771Z,47.70
2018-06-05T06:14:23.754Z,47.00
2018-06-05T06:15:23.739Z,49.30
2018-06-05T06:16:23.735Z,45.90
2018-06-05T06:17:23.713Z,48.90
2018-06-05T06:18:23.698Z,48.90
2018-06-05T06:19:23.682Z,45.80
2018-06-05T06:20:23.671Z,46.00
2018-06-05T06:21:23.665Z,47.10
2018-06-05T06:22:23.642Z,47.10
2018-06-05T06:23:23.627Z,46.30
2018-06-05T06:24:23.613Z,48.60
2018-06-05T06:25:23.601Z,48.60
2018-06-05T06:26:23.606Z,47.00
2018-06-05T06:27:23.571Z,46.90
2018-06-05T06:28:23.557Z,47.10
2018-06-05T06:29:23.544Z,45.00
2018-06-05T06:30:23.527Z,47.80
2018-06-05T06:31:23.514Z,45.50
2018-06-05T06:32:23.514Z,45.70
2018-06-05T06:33:23.484Z,43.70
2018-06-05T06:34:23.470Z,47.30
2018-06-05T06:35:23.459Z,45.30
2018-06-05T06:36:23.441Z,46.90
2018-06-05T06:37:23.429Z,48.30
2018-06-05T06:38:23.424Z,50.30
2018-06-05T06:39:23.404Z,48.10
2018-06-05T06:40:23.389Z,50.60
2018-06-05T06:41:23.375Z,48.90
2018-06-05T06:42:23.357Z,46.80
2018-06-05T06:43:23.355Z,46.70
2018-06-05T06:44:23.331Z,49.50
2018-06-05T06:45:23.316Z,48.60
2018-06-05T06:46:23.308Z,45.40
2018-06-05T06:47:23.285Z,47.20
2018-06-05T06:48:23.288Z,46.40
2018-06-05T06:49:23.258Z,47.80
2018-06-05T06:50:23.247Z,45.30
2018-06-05T06:51:23.230Z,45.80
2018-06-05T06:52:23.215Z,46.40
2018-06-05T06:53:23.206Z,47.80
2018-06-05T06:54:23.227Z,47.60
2018-06-05T06:55:23.174Z,47.30
2018-06-05T06:56:23.161Z,48.60
2018-06-05T06:57:23.146Z,46.20
2018-06-05T06:58:23.131Z,49.70
2018-06-05T06:59:23.133Z,47.20
2018-06-05T07:00:23.105Z,45.60
2018-06-05T07:01:23.091Z,48.70
2018-06-05T07:02:23.075Z,47.50
2018-06-05T07:03:23.060Z,47.00
2018-06-05T07:04:23.049Z,48.60
2018-06-05T07:05:23.053Z,48.20
2018-06-05T07:06:23.023Z,47.80
2018-06-05T07:07:23.004Z,51.80
2018-06-05T07:08:22.991Z,48.90
2018-06-05T07:09:22.975Z,51.20
2018-06-05T07:10:22.974Z,46.80
2018-06-05T07:11:22.947Z,51.90
2018-06-05T07:12:23.021Z,47.50
2018-06-05T07:13:22.921Z,50.20
2018-06-05T07:14:22.905Z,48.20
2018-06-05T07:15:22.906Z,51.50
2018-06-05T07:16:22.879Z,48.10
2018-06-05T07:17:22.878Z,49.40
2018-06-05T07:18:22.909Z,51.40
2018-06-05T07:19:22.836Z,50.20
2018-06-05T07:20:22.818Z,49.90
2018-06-05T07:21:22.869Z,51.90
2018-06-05T07:22:22.795Z,51.20
2018-06-05T07:23:22.781Z,49.40
2018-06-05T07:24:22.765Z,50.30
2018-06-05T07:25:24.354Z,49.80
2018-06-05T07:26:23.013Z,46.80
2018-06-05T07:27:22.723Z,48.90
2018-06-05T07:28:22.708Z,47.00
2018-06-05T07:29:22.694Z,48.90
2018-06-05T07:30:22.728Z,44.90
2018-06-05T07:31:22.667Z,47.60
2018-06-05T07:32:22.665Z,45.10
2018-06-05T07:33:22.638Z,44.50
2018-06-05T07:34:22.626Z,45.20
2018-06-05T07:35:22.611Z,42.70
2018-06-05T07:36:22.597Z,42.60
2018-06-05T07:37:22.600Z,45.80
2018-06-05T07:38:22.571Z,43.70
2018-06-05T07:39:22.553Z,42.80
2018-06-05T07:40:22.540Z,44.00
2018-06-05T07:41:22.558Z,40.80
2018-06-05T07:42:22.513Z,42.40
2018-06-05T07:43:22.504Z,41.40
2018-06-05T07:44:22.525Z,40.90
2018-06-05T07:45:22.472Z,40.30
2018-06-05T07:46:22.463Z,42.70
2018-06-05T07:47:22.445Z,40.40
2018-06-05T07:48:22.460Z,40.10
2018-06-05T07:49:22.413Z,40.00
2018-06-05T07:50:22.402Z,39.30
2018-06-05T07:51:22.384Z,37.90
2018-06-05T07:52:22.373Z,39.10
2018-06-05T07:53:22.362Z,38.20
2018-06-05T07:54:22.360Z,38.10
2018-06-05T07:55:22.398Z,39.60
2018-06-05T07:56:22.316Z,38.00
2018-06-05T07:57:22.303Z,36.10
2018-06-05T07:58:22.290Z,36.30
2018-06-05T07:59:22.293Z,36.20
2018-06-05T08:00:22.264Z,37.00
2018-06-05T08:01:22.247Z,38.30
2018-06-05T08:02:22.236Z,34.60
2018-06-05T08:03:22.219Z,36.20
2018-06-05T08:04:22.216Z,36.30
2018-06-05T08:05:22.204Z,32.50
2018-06-05T08:06:22.183Z,36.10
2018-06-05T08:07:22.167Z,35.90
2018-06-05T08:08:22.157Z,33.70
2018-06-05T08:09:22.143Z,32.80
2018-06-05T08:10:22.138Z,34.50
2018-06-05T08:11:22.121Z,33.20
2018-06-05T08:12:22.101Z,33.00
2018-06-05T08:13:22.087Z,32.80
2018-06-05T08:14:22.074Z,34.80
2018-06-05T08:15:22.092Z,34.50
2018-06-05T08:16:22.049Z,35.20
2018-06-05T08:17:22.042Z,34.40
2018-06-05T08:18:22.048Z,35.30
2018-06-05T08:19:22.007Z,34.80
2018-06-05T08:20:21.996Z,32.70
2018-06-05T08:21:21.993Z,33.90
2018-06-05T08:22:21.971Z,32.10
2018-06-05T08:23:21.955Z,32.70
2018-06-05T08:24:21.973Z,31.80
2018-06-05T08:25:21.934Z,34.20
2018-06-05T08:26:21.934Z,35.20
2018-06-05T08:27:21.908Z,31.80
2018-06-05T08:28:21.895Z,32.80
2018-06-05T08:29:21.880Z,31.60
2018-06-05T08:30:21.866Z,30.50
2018-06-05T08:31:21.855Z,33.60
2018-06-05T08:32:21.852Z,36.30
2018-06-05T08:33:21.827Z,32.60
2018-06-05T08:34:21.815Z,33.00
2018-06-05T08:35:21.804Z,30.50
2018-06-05T08:36:21.790Z,33.40
2018-06-05T08:37:22.053Z,32.70
2018-06-05T08:38:21.766Z,31.30
2018-06-05T08:39:21.752Z,30.90
2018-06-05T08:40:21.738Z,30.60
2018-06-05T08:41:21.730Z,30.90
2018-06-05T08:42:21.715Z,31.00
2018-06-05T08:43:21.711Z,26.20
2018-06-05T08:44:21.699Z,27.70
2018-06-05T08:45:21.679Z,26.80
2018-06-05T08:46:21.667Z,28.50
2018-06-05T08:47:21.651Z,29.30
2018-06-05T08:48:21.650Z,29.30
2018-06-05T08:49:21.630Z,29.40
2018-06-05T08:50:21.617Z,30.90
2018-06-05T08:51:21.605Z,27.50
2018-06-05T08:52:21.591Z,28.40
2018-06-05T08:53:21.594Z,27.50
2018-06-05T08:54:21.572Z,27.70
2018-06-05T08:55:21.554Z,29.60
2018-06-05T08:56:21.543Z,28.50
2018-06-05T08:57:21.531Z,27.10
2018-06-05T08:58:21.520Z,28.10
2018-06-05T08:59:21.516Z,27.10
2018-06-05T09:00:21.493Z,28.50
2018-06-05T09:01:21.485Z,28.40
2018-06-05T09:02:21.472Z,28.10
2018-06-05T09:03:21.456Z,29.10
2018-06-05T09:04:21.715Z,28.20
2018-06-05T09:05:21.480Z,26.50
2018-06-05T09:06:21.422Z,27.20
2018-06-05T09:07:21.409Z,27.90
2018-06-05T09:08:21.398Z,28.20
2018-06-05T09:09:21.387Z,26.60
2018-06-05T09:10:21.386Z,24.70
2018-06-05T09:11:21.361Z,23.30
2018-06-05T09:12:21.350Z,28.70
2018-06-05T09:13:21.339Z,24.60
2018-06-05T09:14:21.329Z,24.70
2018-06-05T09:15:21.326Z,28.60
2018-06-05T09:16:21.312Z,24.10
2018-06-05T09:17:21.294Z,25.90
2018-06-05T09:18:21.280Z,24.10
2018-06-05T09:19:21.266Z,21.20
2018-06-05T09:20:21.274Z,23.40
2018-06-05T09:21:21.244Z,24.10
2018-06-05T09:22:21.232Z,21.20
2018-06-05T09:23:21.223Z,20.80
2018-06-05T09:24:21.212Z,20.40
2018-06-05T09:25:21.200Z,20.60
2018-06-05T09:26:21.198Z,21.40
2018-06-05T09:27:21.174Z,20.60
2018-06-05T09:28:21.165Z,21.00
2018-06-05T09:29:21.152Z,20.70
2018-06-05T09:30:21.142Z,19.60
2018-06-05T09:31:21.143Z,20.90
2018-06-05T09:32:21.119Z,20.80
2018-06-05T09:33:21.107Z,21.60
2018-06-05T09:34:21.108Z,20.90
2018-06-05T09:35:21.085Z,19.70
2018-06-05T09:36:21.073Z,21.20
2018-06-05T09:37:21.074Z,20.30
2018-06-05T09:38:21.048Z,21.50
2018-06-05T09:39:21.034Z,20.50
2018-06-05T09:40:21.028Z,18.90
2018-06-05T09:41:21.014Z,18.90
2018-06-05T09:42:21.020Z,18.80
2018-06-05T09:43:20.997Z,18.30
2018-06-05T09:44:20.978Z,18.90
2018-06-05T09:45:20.967Z,18.20
2018-06-05T09:46:20.958Z,18.00
2018-06-05T09:47:20.942Z,18.80
2018-06-05T09:48:20.940Z,18.00
2018-06-05T09:49:20.923Z,17.50
2018-06-05T09:50:20.908Z,15.80
2018-06-05T09:51:20.897Z,16.30
2018-06-05T09:52:20.901Z,16.60
2018-06-05T09:53:20.884Z,19.00
2018-06-05T09:54:20.862Z,19.90
2018-06-05T09:55:20.850Z,19.60
2018-06-05T09:56:20.843Z,18.00
2018-06-05T09:57:20.827Z,18.10
2018-06-05T09:58:20.945Z,18.10
2018-06-05T09:59:20.805Z,16.70
2018-06-05T10:00:20.793Z,17.50
2018-06-05T10:01:20.783Z,17.50
2018-06-05T10:02:20.771Z,17.40
2018-06-05T10:03:20.758Z,18.00
2018-06-05T10:04:20.757Z,18.50
2018-06-05T10:05:20.741Z,17.70
2018-06-05T10:06:20.730Z,16.00
2018-06-05T10:07:20.714Z,18.10
2018-06-05T10:08:20.703Z,18.10
2018-06-05T10:09:20.706Z,18.40
2018-06-05T10:10:20.681Z,17.60
2018-06-05T10:11:20.667Z,18.90
2018-06-05T10:12:20.657Z,17.00
2018-06-05T10:13:20.642Z,15.20
2018-06-05T10:14:20.634Z,17.50
2018-06-05T10:15:20.635Z,16.40
2018-06-05T10:16:20.609Z,17.50
2018-06-05T10:17:20.597Z,21.10
2018-06-05T10:18:20.586Z,17.70
2018-06-05T10:19:20.574Z,18.10
2018-06-05T10:20:20.622Z,17.30
2018-06-05T10:21:20.552Z,15.80
2018-06-05T10:22:20.542Z,17.50
2018-06-05T10:23:20.527Z,17.10
2018-06-05T10:24:20.516Z,17.20
2018-06-05T10:25:20.506Z,16.40
2018-06-05T10:26:20.500Z,16.40
2018-06-05T10:27:20.493Z,15.50
2018-06-05T10:28:20.468Z,16.20
2018-06-05T10:29:20.456Z,16.50
2018-06-05T10:30:20.447Z,16.00
2018-06-05T10:31:20.444Z,16.90
2018-06-05T10:32:20.424Z,15.60
2018-06-05T10:33:20.412Z,15.00
2018-06-05T10:34:20.401Z,16.30
2018-06-05T10:35:20.389Z,15.60
2018-06-05T10:36:20.392Z,16.00
2018-06-05T10:37:20.364Z,14.40
2018-06-05T10:38:20.353Z,14.70
2018-06-05T10:39:20.347Z,14.90
2018-06-05T10:40:20.328Z,15.40
2018-06-05T10:41:20.321Z,15.40
2018-06-05T10:42:20.321Z,15.50
2018-06-05T10:43:20.297Z,16.10
2018-06-05T10:44:20.283Z,14.60
2018-06-05T10:45:20.272Z,15.80
2018-06-05T10:46:20.260Z,16.10
2018-06-05T10:47:20.262Z,15.90
2018-06-05T10:48:20.238Z,15.10
2018-06-05T10:49:20.227Z,13.90
2018-06-05T10:50:20.213Z,16.60
2018-06-05T10:51:20.205Z,13.90
2018-06-05T10:52:20.191Z,16.30
2018-06-05T10:53:20.191Z,14.90
2018-06-05T10:54:20.173Z,16.20
2018-06-05T10:55:20.156Z,13.70
2018-06-05T10:56:20.145Z,17.10
2018-06-05T10:57:20.136Z,15.40
2018-06-05T10:58:20.142Z,15.30
2018-06-05T10:59:20.110Z,22.50
2018-06-05T11:00:20.102Z,15.60
2018-06-05T11:01:20.089Z,15.10
2018-06-05T11:02:20.078Z,14.20
2018-06-05T11:03:20.068Z,24.30
2018-06-05T11:04:20.066Z,19.80
2018-06-05T11:05:20.047Z,14.80
2018-06-05T11:06:20.034Z,14.50
2018-06-05T11:07:20.024Z,13.70
2018-06-05T11:08:20.009Z,14.20
2018-06-05T11:09:20.009Z,12.50
2018-06-05T11:10:19.988Z,14.50
2018-06-05T11:11:19.982Z,14.20
2018-06-05T11:12:19.968Z,12.90
2018-06-05T11:13:19.954Z,14.40
2018-06-05T11:14:19.966Z,14.00
2018-06-05T11:15:19.934Z,13.80
2018-06-05T11:16:19.921Z,12.50
2018-06-05T11:17:19.912Z,11.40
2018-06-05T11:18:19.910Z,11.80
2018-06-05T11:19:19.890Z,13.10
2018-06-05T11:20:19.891Z,13.90
2018-06-05T11:21:19.869Z,13.40
2018-06-05T11:22:19.861Z,11.70
2018-06-05T11:23:19.846Z,12.20
2018-06-05T11:24:19.840Z,11.60
2018-06-05T11:25:19.833Z,11.70
2018-06-05T11:26:19.815Z,12.10
2018-06-05T11:27:19.804Z,13.40
2018-06-05T11:28:19.795Z,12.00
2018-06-05T11:29:19.781Z,11.30
2018-06-05T11:30:19.803Z,12.70
2018-06-05T11:31:19.761Z,11.40
2018-06-05T11:32:19.750Z,12.40
2018-06-05T11:33:19.739Z,12.50
2018-06-05T11:34:19.729Z,12.30
2018-06-05T11:35:19.717Z,13.50
2018-06-05T11:36:19.735Z,11.80
2018-06-05T11:37:19.698Z,11.70
2018-06-05T11:38:19.689Z,11.80
2018-06-05T11:39:19.677Z,14.60
2018-06-05T11:40:19.669Z,13.40
2018-06-05T11:41:19.659Z,12.30
2018-06-05T11:42:19.669Z,13.30
2018-06-05T11:43:19.634Z,11.10
2018-06-05T11:44:19.625Z,12.60
2018-06-05T11:45:19.618Z,11.60
2018-06-05T11:46:19.605Z,11.20
2018-06-05T11:47:19.606Z,11.40
2018-06-05T11:48:19.584Z,11.20
2018-06-05T11:49:19.573Z,12.70
2018-06-05T11:50:19.561Z,13.10
2018-06-05T11:51:19.554Z,12.40
2018-06-05T11:52:19.560Z,12.50
2018-06-05T11:53:19.533Z,11.10
2018-06-05T11:54:19.547Z,13.10
2018-06-05T11:55:19.513Z,12.00
2018-06-05T11:56:19.504Z,12.90
2018-06-05T11:57:19.491Z,12.70
2018-06-05T11:58:19.497Z,12.30
2018-06-05T11:59:19.469Z,11.90
2018-06-05T12:00:19.460Z,11.10
2018-06-05T12:01:19.451Z,11.60
2018-06-05T12:02:19.446Z,10.40
2018-06-05T12:03:19.429Z,12.50
2018-06-05T12:04:19.430Z,12.70
2018-06-05T12:05:19.410Z,10.90
2018-06-05T12:06:19.399Z,13.10
2018-06-05T12:07:19.388Z,12.00
2018-06-05T12:08:19.381Z,12.30
2018-06-05T12:09:19.378Z,11.60
2018-06-05T12:10:19.358Z,13.30
2018-06-05T12:11:19.350Z,14.50
2018-06-05T12:12:19.338Z,13.00
2018-06-05T12:13:19.328Z,12.70
2018-06-05T12:14:19.329Z,11.90
2018-06-05T12:15:19.309Z,13.20
2018-06-05T12:16:19.298Z,12.10
2018-06-05T12:17:19.291Z,11.90
2018-06-05T12:18:19.280Z,13.80
2018-06-05T12:19:19.282Z,14.80
2018-06-05T12:20:19.258Z,16.10
2018-06-05T12:21:19.249Z,15.70
2018-06-05T12:22:19.237Z,14.50
2018-06-05T12:23:19.230Z,14.30
2018-06-05T12:24:19.220Z,13.80
2018-06-05T12:25:19.222Z,14.20
2018-06-05T12:26:19.200Z,13.90
2018-06-05T12:27:19.191Z,13.80
2018-06-05T12:28:19.181Z,15.30
2018-06-05T12:29:19.170Z,14.80
2018-06-05T12:30:19.161Z,13.70
2018-06-05T12:31:19.158Z,13.60
2018-06-05T12:32:19.143Z,12.70
2018-06-05T12:33:19.130Z,15.60
2018-06-05T12:34:19.121Z,15.80
2018-06-05T12:35:19.109Z,17.70
2018-06-05T12:36:19.110Z,17.00
2018-06-05T12:37:19.090Z,16.20
2018-06-05T12:38:19.087Z,16.10
2018-06-05T12:39:19.070Z,14.00
2018-06-05T12:40:19.063Z,14.20
2018-06-05T12:41:19.070Z,13.00
2018-06-05T12:42:19.042Z,17.40
2018-06-05T12:43:19.033Z,15.40
2018-06-05T12:44:19.027Z,16.20
2018-06-05T12:45:19.015Z,15.60
2018-06-05T12:46:19.002Z,17.40
2018-06-05T12:47:19.007Z,14.40
2018-06-05T12:48:18.986Z,17.40
2018-06-05T12:49:18.975Z,17.80
2018-06-05T12:50:18.964Z,15.80
2018-06-05T12:51:18.955Z,17.90
2018-06-05T12:52:18.946Z,15.60